createdAt,value
2018-01-04T00:00:14.673Z,83.80
2018-01-04T00:02:42.197Z,84.00
2018-01-04T00:05:10.517Z,84.90
2018-01-04T00:07:38.808Z,85.00
2018-01-04T00:10:07.119Z,85.00
2018-01-04T00:12:35.416Z,84.80
2018-01-04T00:15:03.724Z,85.00
2018-01-04T00:17:32.016Z,84.60
2018-01-04T00:20:00.335Z,85.20
2018-01-04T00:22:28.632Z,85.50
2018-01-04T00:24:56.961Z,85.70
2018-01-04T00:27:25.268Z,85.10
2018-01-04T00:29:53.560Z,85.40
2018-01-04T00:32:21.876Z,85.20
2018-01-04T00:34:50.169Z,85.40
2018-01-04T00:37:18.488Z,85.70
2018-01-04T00:39:46.788Z,84.20
2018-01-04T00:42:15.109Z,84.70
2018-01-04T00:44:43.396Z,85.10
2018-01-04T00:47:11.711Z,85.20
2018-01-04T00:49:40.000Z,85.40
2018-01-04T00:52:08.318Z,85.90
2018-01-04T00:54:36.622Z,86.30
2018-01-04T00:57:04.941Z,86.00
2018-01-04T00:59:33.241Z,85.70
2018-01-04T01:02:01.554Z,85.50
2018-01-04T01:04:29.844Z,85.00
2018-01-04T01:06:58.152Z,85.60
2018-01-04T01:09:26.440Z,84.90
2018-01-04T01:11:54.760Z,85.20
2018-01-04T01:14:23.052Z,85.10
2018-01-04T01:16:51.376Z,85.20
2018-01-04T01:19:19.668Z,85.40
2018-01-04T01:21:47.968Z,85.60
2018-01-04T01:24:16.275Z,84.60
2018-01-04T01:26:44.568Z,84.70
2018-01-04T01:29:12.880Z,84.70
2018-01-04T01:31:41.175Z,84.50
2018-01-04T01:34:09.496Z,84.60
2018-01-04T01:36:37.790Z,84.70
2018-01-04T01:39:06.108Z,84.60
2018-01-04T01:41:33.645Z,84.60
2018-01-04T01:44:01.960Z,83.20
2018-01-04T01:46:30.256Z,83.30
2018-01-04T01:49:17.544Z,83.50
2018-01-04T01:51:45.848Z,83.50
2018-01-04T01:54:14.159Z,84.20
2018-01-04T01:56:42.457Z,83.60
2018-01-04T01:59:10.773Z,83.70
2018-01-04T02:01:39.072Z,83.70
2018-01-04T02:04:07.408Z,83.80
2018-01-04T02:06:35.697Z,83.80
2018-01-04T02:09:03.992Z,83.90
2018-01-04T02:11:32.307Z,83.70
2018-01-04T02:14:00.684Z,84.10
2018-01-04T02:16:28.988Z,84.00
2018-01-04T02:19:09.122Z,83.80
2018-01-04T02:21:49.255Z,82.80
2018-01-04T02:24:29.401Z,83.10
2018-01-04T02:27:09.592Z,83.50
2018-01-04T02:29:49.812Z,83.90
2018-01-04T02:32:29.204Z,83.90
2018-01-04T02:35:09.333Z,84.20
2018-01-04T02:37:49.404Z,84.10
2018-01-04T02:40:29.479Z,84.20
2018-01-04T02:43:09.744Z,84.10
2018-01-04T02:45:58.847Z,84.40
2018-01-04T02:48:27.157Z,84.70
2018-01-04T02:50:55.448Z,84.90
2018-01-04T02:53:23.769Z,84.70
2018-01-04T02:55:52.052Z,84.40
2018-01-04T02:58:20.369Z,84.00
2018-01-04T03:00:48.664Z,84.30
2018-01-04T03:03:16.982Z,84.40
2018-01-04T03:05:45.275Z,84.30
2018-01-04T03:08:13.588Z,84.50
2018-01-04T03:10:41.890Z,84.50
2018-01-04T03:13:10.209Z,84.70
2018-01-04T03:15:38.500Z,84.80
2018-01-04T03:18:06.820Z,84.70
2018-01-04T03:20:35.100Z,84.40
2018-01-04T03:23:09.123Z,84.10
2018-01-04T03:25:42.976Z,84.30
2018-01-04T03:28:32.175Z,84.30
2018-01-04T03:31:06.171Z,84.10
2018-01-04T03:33:40.147Z,84.20
2018-01-04T03:36:14.230Z,84.00
2018-01-04T03:38:47.389Z,84.00
2018-01-04T03:41:21.361Z,83.90
2018-01-04T03:43:55.343Z,83.90
2018-01-04T03:46:29.323Z,83.80
2018-01-04T03:49:03.280Z,83.40
2018-01-04T03:51:37.325Z,83.50
2018-01-04T03:54:25.395Z,83.00
2018-01-04T03:57:14.564Z,83.20
2018-01-04T03:59:46.792Z,83.30
2018-01-04T04:02:20.892Z,83.40
2018-01-04T04:04:54.964Z,83.70
2018-01-04T04:07:28.085Z,83.80
2018-01-04T04:09:56.396Z,83.60
2018-01-04T04:12:24.680Z,82.80
2018-01-04T04:14:53.002Z,83.00
2018-01-04T04:17:21.299Z,83.00
2018-01-04T04:19:49.620Z,83.10
2018-01-04T04:22:17.153Z,83.10
2018-01-04T04:24:45.484Z,83.30
2018-01-04T04:27:13.799Z,83.50
2018-01-04T04:29:42.103Z,83.70
2018-01-04T04:32:10.424Z,83.90
2018-01-04T04:34:38.719Z,83.80
2018-01-04T04:37:07.036Z,83.80
2018-01-04T04:39:35.332Z,83.80
2018-01-04T04:42:02.885Z,83.80
2018-01-04T04:44:30.417Z,83.90
2018-01-04T04:46:58.731Z,83.80
2018-01-04T04:49:27.021Z,83.90
2018-01-04T04:51:55.331Z,83.80
2018-01-04T04:54:23.623Z,84.00
2018-01-04T04:56:51.911Z,84.10
2018-01-04T04:59:20.228Z,84.00
2018-01-04T05:01:48.529Z,84.20
2018-01-04T05:04:16.844Z,84.20
2018-01-04T05:06:45.153Z,84.40
2018-01-04T05:09:13.469Z,84.40
2018-01-04T05:11:41.766Z,84.40
2018-01-04T05:14:09.354Z,84.40
2018-01-04T05:16:37.668Z,84.50
2018-01-04T05:19:05.985Z,84.30
2018-01-04T05:21:33.512Z,84.30
2018-01-04T05:24:01.828Z,84.80
2018-01-04T05:26:30.152Z,84.30
2018-01-04T05:28:58.472Z,84.50
2018-01-04T05:31:26.760Z,84.80
2018-01-04T05:33:55.071Z,85.00
2018-01-04T05:36:23.365Z,85.10
2018-01-04T05:38:51.685Z,85.30
2018-01-04T05:41:19.216Z,85.30
2018-01-04T05:43:47.529Z,85.10
2018-01-04T05:46:15.868Z,85.20
2018-01-04T05:48:44.169Z,85.30
2018-01-04T05:51:12.080Z,85.30
2018-01-04T05:53:40.376Z,85.80
2018-01-04T05:56:08.691Z,86.00
2018-01-04T05:58:36.986Z,86.10
2018-01-04T06:01:05.304Z,86.20
2018-01-04T06:03:33.596Z,86.50
2018-01-04T06:06:01.903Z,86.60
2018-01-04T06:08:30.184Z,86.60
2018-01-04T06:10:58.487Z,86.70
2018-01-04T06:13:26.780Z,86.80
2018-01-04T06:15:55.112Z,86.90
2018-01-04T06:18:23.401Z,87.00
2018-01-04T06:20:51.699Z,87.60
2018-01-04T06:23:19.252Z,87.10
2018-01-04T06:25:47.545Z,87.40
2018-01-04T06:28:15.889Z,87.50
2018-01-04T06:30:44.171Z,87.90
2018-01-04T06:33:12.478Z,88.20
2018-01-04T06:35:40.770Z,88.50
2018-01-04T06:38:09.076Z,88.90
2018-01-04T06:40:36.604Z,88.90
2018-01-04T06:43:04.144Z,89.00
2018-01-04T06:45:32.437Z,89.40
2018-01-04T06:48:00.765Z,89.70
2018-01-04T06:50:29.056Z,89.80
2018-01-04T06:52:57.339Z,89.80
2018-01-04T06:55:25.644Z,89.90
2018-01-04T06:57:53.944Z,90.00
2018-01-04T07:00:22.261Z,90.00
2018-01-04T07:02:50.559Z,90.40
2018-01-04T07:05:18.869Z,90.20
2018-01-04T07:07:47.155Z,90.30
2018-01-04T07:10:16.065Z,90.30
2018-01-04T07:12:44.356Z,90.40
2018-01-04T07:15:12.669Z,90.50
2018-01-04T07:17:40.961Z,90.60
2018-01-04T07:20:09.268Z,90.70
2018-01-04T07:22:37.562Z,90.90
2018-01-04T07:25:05.894Z,91.00
2018-01-04T07:27:34.184Z,91.20
2018-01-04T07:30:02.473Z,91.30
2018-01-04T07:32:30.779Z,91.40
2018-01-04T07:34:59.073Z,91.50
2018-01-04T07:37:27.379Z,91.50
2018-01-04T07:39:55.720Z,91.50
2018-01-04T07:42:24.036Z,91.90
2018-01-04T07:44:52.343Z,91.50
2018-01-04T07:47:20.651Z,91.60
2018-01-04T07:49:48.946Z,91.60
2018-01-04T07:52:17.264Z,91.70
2018-01-04T07:54:45.556Z,91.70
2018-01-04T07:57:13.872Z,91.80
2018-01-04T07:59:42.174Z,92.10
2018-01-04T08:02:10.500Z,91.80
2018-01-04T08:04:38.792Z,91.80
2018-01-04T08:07:07.085Z,91.90
2018-01-04T08:09:35.405Z,91.90
2018-01-04T08:12:03.697Z,91.90
2018-01-04T08:14:32.008Z,91.90
2018-01-04T08:17:00.300Z,91.90
2018-01-04T08:19:28.617Z,92.20
2018-01-04T08:21:56.908Z,91.80
2018-01-04T08:24:24.455Z,91.80
2018-01-04T08:26:52.744Z,91.70
2018-01-04T08:29:21.062Z,91.80
2018-01-04T08:31:49.357Z,91.70
2018-01-04T08:34:17.686Z,91.70
2018-01-04T08:36:45.977Z,91.70
2018-01-04T08:39:14.296Z,91.70
2018-01-04T08:41:42.608Z,91.70
2018-01-04T08:44:10.898Z,91.70
2018-01-04T08:46:39.212Z,91.60
2018-01-04T08:49:07.505Z,91.70
2018-01-04T08:51:35.821Z,91.70
2018-01-04T08:54:04.108Z,91.60
2018-01-04T08:56:32.432Z,91.60
2018-01-04T08:59:00.736Z,91.60
2018-01-04T09:01:29.052Z,91.60
2018-01-04T09:03:57.353Z,91.60
2018-01-04T09:06:25.673Z,91.60
2018-01-04T09:08:53.965Z,91.60
2018-01-04T09:11:22.309Z,91.50
2018-01-04T09:13:50.656Z,91.50
2018-01-04T09:16:18.944Z,91.50
2018-01-04T09:18:47.254Z,91.40
2018-01-04T09:21:15.550Z,91.30
2018-01-04T09:23:43.868Z,91.20
2018-01-04T09:26:12.160Z,91.20
2018-01-04T09:28:40.474Z,91.30
2018-01-04T09:31:08.764Z,91.30
2018-01-04T09:33:37.085Z,91.30
2018-01-04T09:36:05.378Z,91.40
2018-01-04T09:38:32.958Z,91.30
2018-01-04T09:41:01.251Z,91.20
2018-01-04T09:43:29.548Z,91.20
2018-01-04T09:45:57.867Z,91.20
2018-01-04T09:48:26.163Z,91.40
2018-01-04T09:50:54.487Z,91.40
2018-01-04T09:53:22.588Z,91.40
2018-01-04T09:55:50.896Z,91.30
2018-01-04T09:58:19.191Z,91.10
2018-01-04T10:00:47.513Z,91.00
2018-01-04T10:03:15.826Z,90.90
2018-01-04T10:05:44.161Z,91.00
2018-01-04T10:08:12.446Z,90.90
2018-01-04T10:10:40.749Z,90.90
2018-01-04T10:13:09.064Z,90.90
2018-01-04T10:15:37.364Z,90.70
2018-01-04T10:18:05.684Z,90.70
2018-01-04T10:20:33.991Z,90.60
2018-01-04T10:23:02.317Z,90.60
2018-01-04T10:25:30.620Z,90.60
2018-01-04T10:27:58.943Z,90.70
2018-01-04T10:30:27.240Z,90.60
2018-01-04T10:32:55.571Z,90.50
2018-01-04T10:35:23.108Z,90.50
2018-01-04T10:37:51.404Z,90.60
2018-01-04T10:40:19.720Z,90.50
2018-01-04T10:42:48.010Z,90.60
2018-01-04T10:45:16.338Z,90.60
2018-01-04T10:47:44.636Z,90.60
2018-01-04T10:50:12.956Z,90.60
2018-01-04T10:52:41.256Z,90.70
2018-01-04T10:55:09.569Z,90.70
2018-01-04T10:57:37.865Z,90.70
2018-01-04T11:00:06.184Z,90.70
2018-01-04T11:02:34.476Z,90.70
2018-01-04T11:05:02.052Z,90.90
2018-01-04T11:07:30.349Z,90.70
2018-01-04T11:09:58.662Z,90.70
2018-01-04T11:12:26.961Z,90.70
2018-01-04T11:14:55.276Z,90.70
2018-01-04T11:17:23.568Z,90.70
2018-01-04T11:19:51.900Z,90.70
2018-01-04T11:22:20.201Z,90.80
2018-01-04T11:24:48.515Z,90.80
2018-01-04T11:27:16.820Z,90.80
2018-01-04T11:29:45.136Z,90.90
2018-01-04T11:32:13.441Z,91.00
2018-01-04T11:34:41.766Z,91.00
2018-01-04T11:37:10.061Z,91.10
2018-01-04T11:39:38.376Z,91.00
2018-01-04T11:42:06.664Z,91.00
2018-01-04T11:44:34.962Z,91.10
2018-01-04T11:47:03.289Z,91.10
2018-01-04T11:49:31.589Z,91.10
2018-01-04T11:51:59.916Z,91.10
2018-01-04T11:54:28.207Z,91.20
2018-01-04T11:56:56.525Z,91.20
2018-01-04T11:59:24.817Z,91.30
2018-01-04T12:01:53.133Z,91.70
2018-01-04T12:04:21.451Z,91.40
2018-01-04T12:06:49.774Z,91.40
2018-01-04T12:09:18.069Z,91.50
2018-01-04T12:11:46.389Z,91.50
2018-01-04T12:14:14.683Z,91.60
2018-01-04T12:16:42.992Z,91.70
2018-01-04T12:19:11.290Z,91.80
2018-01-04T12:21:39.599Z,92.00
2018-01-04T12:24:07.898Z,92.10
2018-01-04T12:26:36.217Z,92.10
2018-01-04T12:29:04.516Z,92.20
2018-01-04T12:31:32.065Z,92.20
2018-01-04T12:34:00.361Z,92.50
2018-01-04T12:36:28.677Z,92.60
2018-01-04T12:38:56.964Z,92.70
2018-01-04T12:41:25.277Z,92.80
2018-01-04T12:43:53.568Z,92.80
2018-01-04T12:46:21.892Z,92.80
2018-01-04T12:48:50.192Z,92.80
2018-01-04T12:51:18.516Z,92.90
2018-01-04T12:53:46.807Z,92.90
2018-01-04T12:56:15.142Z,93.10
2018-01-04T12:58:44.415Z,93.10
2018-01-04T13:01:12.725Z,93.30
2018-01-04T13:03:41.020Z,93.40
2018-01-04T13:06:09.332Z,93.40
2018-01-04T13:08:37.649Z,93.50
2018-01-04T13:11:05.960Z,93.50
2018-01-04T13:13:34.259Z,93.20
2018-01-04T13:16:02.576Z,93.30
2018-01-04T13:18:30.870Z,93.40
2018-01-04T13:20:59.188Z,93.50
2018-01-04T13:23:27.488Z,93.60
2018-01-04T13:25:55.783Z,93.70
2018-01-04T13:28:23.339Z,93.70
2018-01-04T13:30:51.638Z,93.60
2018-01-04T13:33:19.950Z,94.20
2018-01-04T13:35:48.249Z,93.90
2018-01-04T13:38:15.797Z,93.90
2018-01-04T13:40:44.096Z,94.20
2018-01-04T13:43:12.407Z,94.50
2018-01-04T13:45:40.713Z,94.70
2018-01-04T13:48:09.043Z,95.00
2018-01-04T13:50:37.341Z,95.10
2018-01-04T13:53:05.652Z,95.10
2018-01-04T13:55:33.941Z,95.20
2018-01-04T13:58:02.264Z,95.10
2018-01-04T14:00:30.554Z,95.00
2018-01-04T14:02:58.873Z,94.40
2018-01-04T14:05:27.163Z,94.10
2018-01-04T14:07:55.472Z,93.90
2018-01-04T14:10:23.764Z,93.80
2018-01-04T14:12:51.313Z,93.80
2018-01-04T14:15:19.617Z,93.70
2018-01-04T14:17:47.925Z,93.30
2018-01-04T14:20:16.219Z,93.10
2018-01-04T14:22:44.548Z,93.30
2018-01-04T14:25:12.840Z,93.40
2018-01-04T14:27:41.148Z,93.50
2018-01-04T14:30:09.449Z,93.70
2018-01-04T14:32:37.767Z,93.70
2018-01-04T14:35:06.065Z,93.90
2018-01-04T14:37:34.385Z,94.10
2018-01-04T14:40:02.692Z,94.10
2018-01-04T14:42:30.248Z,94.10
2018-01-04T14:44:58.552Z,94.30
2018-01-04T14:47:26.864Z,94.30
2018-01-04T14:49:55.160Z,94.30
2018-01-04T14:52:23.476Z,94.30
2018-01-04T14:54:51.768Z,94.40
2018-01-04T14:57:20.083Z,94.30
2018-01-04T14:59:48.377Z,94.30
2018-01-04T15:02:15.936Z,94.40
2018-01-04T15:04:44.233Z,94.60
2018-01-04T15:07:12.540Z,94.60
2018-01-04T15:09:40.847Z,94.40
2018-01-04T15:12:09.142Z,94.20
2018-01-04T15:14:37.466Z,94.10
2018-01-04T15:17:05.763Z,93.50
2018-01-04T15:19:34.076Z,93.20
2018-01-04T15:22:02.374Z,91.80
2018-01-04T15:24:30.697Z,91.80
2018-01-04T15:26:58.988Z,91.50
2018-01-04T15:29:27.304Z,90.80
2018-01-04T15:31:55.605Z,90.90
2018-01-04T15:34:23.923Z,91.00
2018-01-04T15:36:52.225Z,91.00
2018-01-04T15:39:20.544Z,90.70
2018-01-04T15:41:48.828Z,90.80
2018-01-04T15:44:17.144Z,91.30
2018-01-04T15:46:45.450Z,90.60
2018-01-04T15:49:12.995Z,90.60
2018-01-04T15:51:40.521Z,90.70
2018-01-04T15:54:08.836Z,90.80
2018-01-04T15:56:37.156Z,90.80
2018-01-04T15:59:04.708Z,90.80
2018-01-04T16:01:32.996Z,90.30
2018-01-04T16:04:00.548Z,90.30
2018-01-04T16:06:28.848Z,90.50
2018-01-04T16:08:57.169Z,90.40
2018-01-04T16:11:25.464Z,90.40
2018-01-04T16:13:53.033Z,90.30
2018-01-04T16:16:21.337Z,89.00
2018-01-04T16:18:49.662Z,88.90
2018-01-04T16:21:17.958Z,89.30
2018-01-04T16:23:46.269Z,89.60
2018-01-04T16:26:14.564Z,89.60
2018-01-04T16:28:42.881Z,89.40
2018-01-04T16:31:11.200Z,89.30
2018-01-04T16:33:39.516Z,89.60
2018-01-04T16:36:07.858Z,89.50
2018-01-04T16:38:36.162Z,88.70
2018-01-04T16:41:04.452Z,88.90
2018-01-04T16:43:32.756Z,88.60
2018-01-04T16:46:01.068Z,88.40
2018-01-04T16:48:29.365Z,87.60
2018-01-04T16:50:57.677Z,87.50
2018-01-04T16:53:25.984Z,86.60
2018-01-04T16:55:54.297Z,86.20
2018-01-04T16:58:21.835Z,86.20
2018-01-04T17:00:50.157Z,87.60
2018-01-04T17:03:18.452Z,87.20
2018-01-04T17:05:46.793Z,87.40
2018-01-04T17:08:15.096Z,87.70
2018-01-04T17:10:43.412Z,86.50
2018-01-04T17:13:11.710Z,85.50
2018-01-04T17:15:40.029Z,86.00
2018-01-04T17:18:08.320Z,86.30
2018-01-04T17:20:36.633Z,85.10
2018-01-04T17:23:04.933Z,85.00
2018-01-04T17:25:33.253Z,83.80
2018-01-04T17:28:01.553Z,84.00
2018-01-04T17:30:29.886Z,84.50
2018-01-04T17:32:58.185Z,84.20
2018-01-04T17:35:26.504Z,83.90
2018-01-04T17:37:54.800Z,82.70
2018-01-04T17:40:23.133Z,77.80
2018-01-04T17:42:51.433Z,76.70
2018-01-04T17:45:19.757Z,77.20
2018-01-04T17:47:48.053Z,77.30
2018-01-04T17:50:16.369Z,77.30
2018-01-04T17:52:44.669Z,76.70
2018-01-04T17:55:12.993Z,77.80
2018-01-04T17:57:41.281Z,79.50
2018-01-04T18:00:09.593Z,79.90
2018-01-04T18:02:37.880Z,80.80
2018-01-04T18:05:06.188Z,80.60
2018-01-04T18:07:34.472Z,77.70
2018-01-04T18:10:02.792Z,76.30
2018-01-04T18:12:31.080Z,74.60
2018-01-04T18:14:59.410Z,75.60
2018-01-04T18:17:27.721Z,75.10
2018-01-04T18:19:56.025Z,75.50
2018-01-04T18:22:24.344Z,76.90
2018-01-04T18:24:52.648Z,77.30
2018-01-04T18:27:20.969Z,77.10
2018-01-04T18:29:49.260Z,77.70
2018-01-04T18:32:16.818Z,77.70
2018-01-04T18:34:45.187Z,78.20
2018-01-04T18:37:13.552Z,76.60
2018-01-04T18:39:41.857Z,74.30
2018-01-04T18:42:10.173Z,73.20
2018-01-04T18:44:38.516Z,73.60
2018-01-04T18:47:06.846Z,74.00
2018-01-04T18:49:35.147Z,74.90
2018-01-04T18:52:03.469Z,74.60
2018-01-04T18:54:31.768Z,75.20
2018-01-04T18:57:00.085Z,74.70
2018-01-04T18:59:28.386Z,74.50
2018-01-04T19:01:56.732Z,74.80
2018-01-04T19:04:25.037Z,74.90
2018-01-04T19:06:53.362Z,73.90
2018-01-04T19:09:21.653Z,74.70
2018-01-04T19:11:49.976Z,74.60
2018-01-04T19:14:18.273Z,72.70
2018-01-04T19:16:46.600Z,73.30
2018-01-04T19:19:14.902Z,72.90
2018-01-04T19:21:43.224Z,72.20
2018-01-04T19:24:11.520Z,71.60
2018-01-04T19:26:39.880Z,72.00
2018-01-04T19:29:08.160Z,71.80
2018-01-04T19:31:36.468Z,72.20
2018-01-04T19:34:04.785Z,71.20
2018-01-04T19:36:33.106Z,71.10
2018-01-04T19:39:01.413Z,71.70
2018-01-04T19:41:29.741Z,71.90
2018-01-04T19:43:58.032Z,72.40
2018-01-04T19:46:26.356Z,72.30
2018-01-04T19:48:53.916Z,72.30
2018-01-04T19:51:22.236Z,72.80
2018-01-04T19:53:50.552Z,72.20
2018-01-04T19:56:18.885Z,71.60
2018-01-04T19:58:46.416Z,71.60
2018-01-04T20:01:14.748Z,73.30
2018-01-04T20:03:42.275Z,73.30
2018-01-04T20:06:10.585Z,73.10
2018-01-04T20:08:38.904Z,71.60
2018-01-04T20:11:07.198Z,70.90
2018-01-04T20:13:35.520Z,70.20
2018-01-04T20:16:03.812Z,69.90
2018-01-04T20:18:32.130Z,70.00
2018-01-04T20:20:59.660Z,70.00
2018-01-04T20:23:27.976Z,68.80
2018-01-04T20:25:56.275Z,68.60
2018-01-04T20:28:24.599Z,69.50
2018-01-04T20:30:52.893Z,69.40
2018-01-04T20:33:21.208Z,70.10
2018-01-04T20:35:49.503Z,70.00
2018-01-04T20:38:17.828Z,69.50
2018-01-04T20:40:46.124Z,68.40
2018-01-04T20:43:14.444Z,68.40
2018-01-04T20:45:42.749Z,68.80
2018-01-04T20:48:11.069Z,69.10
2018-01-04T20:50:39.357Z,69.20
2018-01-04T20:53:07.682Z,69.70
2018-01-04T20:55:36.002Z,70.90
2018-01-04T20:58:04.321Z,70.30
2018-01-04T21:00:32.624Z,69.60
2018-01-04T21:03:00.205Z,69.50
2018-01-04T21:05:28.496Z,69.30
2018-01-04T21:07:56.804Z,69.60
2018-01-04T21:10:25.101Z,70.80
2018-01-04T21:12:53.428Z,70.80
2018-01-04T21:15:21.740Z,71.50
2018-01-04T21:17:50.068Z,70.10
2018-01-04T21:20:18.372Z,70.70
2018-01-04T21:22:46.664Z,71.10
2018-01-04T21:25:14.987Z,71.30
2018-01-04T21:27:43.284Z,71.90
2018-01-04T21:30:11.608Z,71.70
2018-01-04T21:32:39.901Z,72.20
2018-01-04T21:35:08.216Z,72.10
2018-01-04T21:37:36.520Z,72.70
2018-01-04T21:40:04.841Z,72.80
2018-01-04T21:42:32.368Z,72.80
2018-01-04T21:45:00.676Z,73.00
2018-01-04T21:47:28.972Z,73.40
2018-01-04T21:49:57.300Z,73.30
2018-01-04T21:52:25.596Z,72.80
2018-01-04T21:54:53.897Z,73.40
2018-01-04T21:57:22.220Z,73.70
2018-01-04T21:59:50.517Z,73.30
2018-01-04T22:02:18.836Z,73.10
2018-01-04T22:04:47.174Z,72.80
2018-01-04T22:07:15.493Z,73.40
2018-01-04T22:09:43.787Z,72.90
2018-01-04T22:12:12.101Z,73.20
2018-01-04T22:14:40.413Z,73.40
2018-01-04T22:17:08.733Z,73.90
2018-01-04T22:19:37.030Z,74.30
2018-01-04T22:22:05.336Z,73.80
2018-01-04T22:24:33.636Z,73.80
2018-01-04T22:27:01.952Z,74.10
2018-01-04T22:29:30.244Z,74.10
2018-01-04T22:31:58.541Z,74.40
2018-01-04T22:34:26.857Z,74.70
2018-01-04T22:36:55.151Z,74.40
2018-01-04T22:39:23.464Z,74.50
2018-01-04T22:41:51.760Z,74.60
2018-01-04T22:44:20.080Z,74.60
2018-01-04T22:46:48.376Z,75.70
2018-01-04T22:49:15.945Z,74.90
2018-01-04T22:51:44.241Z,75.60
2018-01-04T22:54:12.562Z,75.30
2018-01-04T22:56:40.860Z,75.20
2018-01-04T22:59:08.414Z,75.30
2018-01-04T23:01:36.708Z,75.70
2018-01-04T23:04:05.025Z,75.40
2018-01-04T23:06:33.316Z,75.50
2018-01-04T23:09:01.644Z,75.80
2018-01-04T23:11:29.952Z,75.60
2018-01-04T23:13:58.245Z,75.60
2018-01-04T23:16:26.565Z,75.80
2018-01-04T23:18:54.863Z,75.80
2018-01-04T23:21:23.191Z,75.60
2018-01-04T23:23:51.489Z,75.50
2018-01-04T23:26:19.816Z,75.40
2018-01-04T23:28:48.104Z,75.20
2018-01-04T23:31:16.419Z,74.90
2018-01-04T23:33:44.722Z,75.00
2018-01-04T23:36:13.032Z,74.80
2018-01-04T23:38:41.332Z,74.90
2018-01-04T23:41:09.668Z,74.90
2018-01-04T23:43:37.960Z,74.50
2018-01-04T23:46:06.256Z,74.80
2018-01-04T23:48:33.805Z,74.70
2018-01-04T23:51:02.091Z,74.20
2018-01-04T23:53:30.404Z,74.40
2018-01-04T23:55:58.697Z,74.60
2018-01-04T23:58:27.018Z,74.60
